createdAt,value
2023-07-03T00:00:55.380Z,87.69
2023-07-03T00:03:41.733Z,86.69
2023-07-03T00:06:08.271Z,84.23
2023-07-03T00:08:34.778Z,83.12
2023-07-03T00:11:01.482Z,80.66
2023-07-03T00:13:28.031Z,80.23
2023-07-03T00:15:58.063Z,79.02
2023-07-03T00:18:24.585Z,79.93
2023-07-03T00:20:50.992Z,80.10
2023-07-03T00:23:17.486Z,80.90
2023-07-03T00:25:43.944Z,81.97
2023-07-03T00:28:10.270Z,82.31
2023-07-03T00:30:36.963Z,82.15
2023-07-03T00:33:03.351Z,79.82
2023-07-03T00:35:29.746Z,78.27
2023-07-03T00:37:56.107Z,77.01
2023-07-03T00:40:22.496Z,76.77
2023-07-03T00:42:48.893Z,77.77
2023-07-03T00:45:15.311Z,81.34
2023-07-03T00:47:41.764Z,79.64
2023-07-03T00:50:09.183Z,79.08
2023-07-03T00:52:35.620Z,80.58
2023-07-03T00:55:01.966Z,79.49
2023-07-03T00:57:28.504Z,78.48
2023-07-03T00:59:54.912Z,78.05
2023-07-03T01:02:34.458Z,78.29
2023-07-03T01:05:16.755Z,78.56
2023-07-03T01:07:44.278Z,81.65
2023-07-03T01:10:13.413Z,82.25
2023-07-03T01:12:42.297Z,83.22
2023-07-03T01:15:10.778Z,81.88
2023-07-03T01:17:38.840Z,78.86
2023-07-03T01:20:06.258Z,80.26
2023-07-03T01:22:36.189Z,78.14
2023-07-03T01:25:06.541Z,78.95
2023-07-03T01:27:34.842Z,78.94
2023-07-03T01:30:02.164Z,78.04
2023-07-03T01:32:30.069Z,78.51
2023-07-03T01:34:57.082Z,78.87
2023-07-03T01:37:25.116Z,80.29
2023-07-03T01:39:52.102Z,80.94
2023-07-03T01:42:20.716Z,79.86
2023-07-03T01:44:47.227Z,82.86
2023-07-03T01:47:13.978Z,84.75
2023-07-03T01:49:40.382Z,85.91
2023-07-03T01:52:11.329Z,86.23
2023-07-03T01:54:40.681Z,86.89
2023-07-03T01:57:07.845Z,87.44
2023-07-03T01:59:34.763Z,88.04
2023-07-03T02:02:01.250Z,86.83
2023-07-03T02:04:30.958Z,86.27
2023-07-03T02:06:58.318Z,81.92
2023-07-03T02:09:25.501Z,82.55
2023-07-03T02:11:52.712Z,83.26
2023-07-03T02:14:19.255Z,81.59
2023-07-03T02:16:45.820Z,82.40
2023-07-03T02:19:12.177Z,82.42
2023-07-03T02:21:38.583Z,81.28
2023-07-03T02:24:04.949Z,80.54
2023-07-03T02:26:32.102Z,81.41
2023-07-03T02:28:58.394Z,83.67
2023-07-03T02:31:24.883Z,84.55
2023-07-03T02:33:51.264Z,83.09
2023-07-03T02:36:17.623Z,80.66
2023-07-03T02:38:43.970Z,83.07
2023-07-03T02:41:10.672Z,80.37
2023-07-03T02:43:37.043Z,81.62
2023-07-03T02:46:04.332Z,84.55
2023-07-03T02:48:30.832Z,85.33
2023-07-03T02:50:57.633Z,86.55
2023-07-03T02:53:24.550Z,86.99
2023-07-03T02:55:56.678Z,85.18
2023-07-03T02:58:24.399Z,81.31
2023-07-03T03:00:50.876Z,79.96
2023-07-03T03:03:17.680Z,80.73
2023-07-03T03:05:44.165Z,79.68
2023-07-03T03:08:10.835Z,80.25
2023-07-03T03:10:37.554Z,81.27
2023-07-03T03:13:04.349Z,80.99
2023-07-03T03:15:33.828Z,79.74
2023-07-03T03:18:00.473Z,78.75
2023-07-03T03:20:27.000Z,78.81
2023-07-03T03:22:53.349Z,78.92
2023-07-03T03:25:19.788Z,79.00
2023-07-03T03:27:46.160Z,80.69
2023-07-03T03:30:12.630Z,81.60
2023-07-03T03:32:40.154Z,80.47
2023-07-03T03:35:06.979Z,81.31
2023-07-03T03:37:33.712Z,81.40
2023-07-03T03:40:00.941Z,79.92
2023-07-03T03:42:27.399Z,79.95
2023-07-03T03:44:54.478Z,80.00
2023-07-03T03:47:22.805Z,81.04
2023-07-03T03:49:49.689Z,81.03
2023-07-03T03:52:16.072Z,81.56
2023-07-03T03:54:42.492Z,83.31
2023-07-03T03:57:08.953Z,83.75
2023-07-03T03:59:35.770Z,84.17
2023-07-03T04:02:02.243Z,84.78
2023-07-03T04:04:28.807Z,86.53
2023-07-03T04:06:55.259Z,86.32
2023-07-03T04:09:21.583Z,85.70
2023-07-03T04:11:47.943Z,82.64
2023-07-03T04:14:14.333Z,83.33
2023-07-03T04:16:40.671Z,83.45
2023-07-03T04:19:07.067Z,82.18
2023-07-03T04:21:33.370Z,79.39
2023-07-03T04:23:59.671Z,78.99
2023-07-03T04:26:26.074Z,80.23
2023-07-03T04:28:52.454Z,78.88
2023-07-03T04:31:18.985Z,78.67
2023-07-03T04:33:45.409Z,78.17
2023-07-03T04:36:12.362Z,80.81
2023-07-03T04:38:39.629Z,79.61
2023-07-03T04:41:05.919Z,78.13
2023-07-03T04:43:32.253Z,80.85
2023-07-03T04:45:58.673Z,77.87
2023-07-03T04:48:25.224Z,78.51
2023-07-03T04:50:51.545Z,78.00
2023-07-03T04:53:18.604Z,77.35
2023-07-03T04:55:44.909Z,80.76
2023-07-03T04:58:11.220Z,77.79
2023-07-03T05:00:37.601Z,77.11
2023-07-03T05:03:04.342Z,75.76
2023-07-03T05:05:30.847Z,75.57
2023-07-03T05:07:58.898Z,75.98
2023-07-03T05:10:25.677Z,76.20
2023-07-03T05:12:52.087Z,77.79
2023-07-03T05:15:19.393Z,79.46
2023-07-03T05:17:49.856Z,80.17
2023-07-03T05:20:17.388Z,78.44
2023-07-03T05:22:44.507Z,78.73
2023-07-03T05:25:11.810Z,75.30
2023-07-03T05:27:38.670Z,75.60
2023-07-03T05:30:06.003Z,82.79
2023-07-03T05:32:32.563Z,82.19
2023-07-03T05:35:02.534Z,80.51
2023-07-03T05:37:29.204Z,81.87
2023-07-03T05:39:55.503Z,80.90
2023-07-03T05:42:21.867Z,76.72
2023-07-03T05:44:48.205Z,77.52
2023-07-03T05:47:15.408Z,78.89
2023-07-03T05:49:41.999Z,77.72
2023-07-03T05:52:09.219Z,77.14
2023-07-03T05:54:35.556Z,81.32
2023-07-03T05:57:09.340Z,81.15
2023-07-03T05:59:36.667Z,79.50
2023-07-03T06:02:04.472Z,76.05
2023-07-03T06:04:30.957Z,82.46
2023-07-03T06:06:57.426Z,81.44
2023-07-03T06:09:24.362Z,79.73
2023-07-03T06:11:50.773Z,81.93
2023-07-03T06:14:17.841Z,78.90
2023-07-03T06:16:45.261Z,78.00
2023-07-03T06:19:12.268Z,76.29
2023-07-03T06:21:38.798Z,75.28
2023-07-03T06:24:05.764Z,75.30
2023-07-03T06:26:32.228Z,75.54
2023-07-03T06:28:58.566Z,76.25
2023-07-03T06:31:24.931Z,72.53
2023-07-03T06:33:51.500Z,74.93
2023-07-03T06:36:17.861Z,74.21
2023-07-03T06:38:44.522Z,80.72
2023-07-03T06:41:10.911Z,77.73
2023-07-03T06:43:37.254Z,72.20
2023-07-03T06:46:03.625Z,70.93
2023-07-03T06:48:29.947Z,73.33
2023-07-03T06:51:05.938Z,67.49
2023-07-03T06:53:32.356Z,75.01
2023-07-03T06:55:59.537Z,69.85
2023-07-03T06:58:26.577Z,72.70
2023-07-03T07:00:53.034Z,71.02
2023-07-03T07:03:19.641Z,71.81
2023-07-03T07:05:46.235Z,73.69
2023-07-03T07:08:12.813Z,76.35
2023-07-03T07:10:39.411Z,73.66
2023-07-03T07:13:06.573Z,73.28
2023-07-03T07:15:37.486Z,74.43
2023-07-03T07:18:05.197Z,71.70
2023-07-03T07:20:36.157Z,68.49
2023-07-03T07:23:02.575Z,67.85
2023-07-03T07:25:28.880Z,67.31
2023-07-03T07:27:55.331Z,66.39
2023-07-03T07:30:21.705Z,65.41
2023-07-03T07:32:48.648Z,66.44
2023-07-03T07:35:15.262Z,67.33
2023-07-03T07:37:41.927Z,65.04
2023-07-03T07:40:09.083Z,67.37
2023-07-03T07:42:35.849Z,63.47
2023-07-03T07:45:02.547Z,66.58
2023-07-03T07:47:29.540Z,67.15
2023-07-03T07:49:55.928Z,67.96
2023-07-03T07:52:22.368Z,67.13
2023-07-03T07:54:48.671Z,66.83
2023-07-03T07:57:15.023Z,70.02
2023-07-03T07:59:41.345Z,72.19
2023-07-03T08:02:07.870Z,69.59
2023-07-03T08:04:34.408Z,63.21
2023-07-03T08:07:00.992Z,66.86
2023-07-03T08:09:27.393Z,64.00
2023-07-03T08:11:53.771Z,66.42
2023-07-03T08:14:20.205Z,68.53
2023-07-03T08:16:46.735Z,63.70
2023-07-03T08:19:13.075Z,60.50
2023-07-03T08:21:39.380Z,59.95
2023-07-03T08:24:06.435Z,62.10
2023-07-03T08:26:32.964Z,58.76
2023-07-03T08:28:59.355Z,60.21
2023-07-03T08:31:25.780Z,58.39
2023-07-03T08:33:52.292Z,57.77
2023-07-03T08:38:48.076Z,58.95
2023-07-03T08:41:15.308Z,59.85
2023-07-03T08:43:43.234Z,62.62
2023-07-03T08:46:11.807Z,59.49
2023-07-03T08:48:39.147Z,62.43
2023-07-03T08:51:07.648Z,61.91
2023-07-03T08:53:39.463Z,59.38
2023-07-03T08:56:11.902Z,56.73
2023-07-03T08:58:38.278Z,55.50
2023-07-03T09:01:23.334Z,56.89
2023-07-03T09:03:59.800Z,59.61
2023-07-03T09:06:40.425Z,57.29
2023-07-03T09:09:06.793Z,52.72
2023-07-03T09:11:35.828Z,53.21
2023-07-03T09:14:03.336Z,54.81
2023-07-03T09:16:30.717Z,55.64
2023-07-03T09:19:00.069Z,53.84
2023-07-03T09:21:28.682Z,53.25
2023-07-03T09:24:00.611Z,53.16
2023-07-03T09:26:32.219Z,59.39
2023-07-03T09:28:58.666Z,57.63
2023-07-03T09:31:26.874Z,54.97
2023-07-03T09:33:53.441Z,54.78
2023-07-03T09:36:28.677Z,52.36
2023-07-03T09:38:55.072Z,52.66
2023-07-03T09:41:29.316Z,50.79
2023-07-03T09:43:55.960Z,52.10
2023-07-03T09:46:23.070Z,52.50
2023-07-03T09:48:50.669Z,56.90
2023-07-03T09:51:20.953Z,55.66
2023-07-03T09:53:47.272Z,50.76
2023-07-03T09:56:16.663Z,54.01
2023-07-03T09:58:48.562Z,56.67
2023-07-03T10:04:04.541Z,54.00
2023-07-03T10:07:06.595Z,54.35
2023-07-03T10:12:11.453Z,55.17
2023-07-03T10:14:41.121Z,54.98
2023-07-03T10:17:08.628Z,53.17
2023-07-03T10:19:35.084Z,58.19
2023-07-03T10:22:01.816Z,54.85
2023-07-03T10:24:28.339Z,53.02
2023-07-03T10:26:57.876Z,54.31
2023-07-03T10:29:26.698Z,54.36
2023-07-03T10:31:55.746Z,52.60
2023-07-03T10:34:48.282Z,56.67
2023-07-03T10:37:17.840Z,50.89
2023-07-03T10:39:58.749Z,48.66
2023-07-03T10:42:30.097Z,45.30
2023-07-03T10:44:59.568Z,41.91
2023-07-03T10:47:29.006Z,44.40
2023-07-03T10:49:55.487Z,43.97
2023-07-03T10:52:42.605Z,53.20
2023-07-03T10:55:18.502Z,49.62
2023-07-03T10:57:52.408Z,45.21
2023-07-03T11:00:25.403Z,46.36
2023-07-03T11:02:59.805Z,45.30
2023-07-03T11:05:29.261Z,43.59
2023-07-03T11:08:00.787Z,41.79
2023-07-03T11:10:37.067Z,48.43
2023-07-03T11:13:16.221Z,46.39
2023-07-03T11:16:05.450Z,53.77
2023-07-03T11:23:54.184Z,49.29
2023-07-03T11:28:52.675Z,46.04
2023-07-03T11:31:19.613Z,50.33
2023-07-03T11:36:49.215Z,45.32
2023-07-03T11:44:39.914Z,43.60
2023-07-03T11:47:25.675Z,45.98
2023-07-03T11:49:58.587Z,44.38
2023-07-03T11:52:28.992Z,42.00
2023-07-03T11:54:59.974Z,39.10
2023-07-03T11:57:33.866Z,42.71
2023-07-03T12:00:17.665Z,44.50
2023-07-03T12:02:44.118Z,43.87
2023-07-03T12:05:10.554Z,41.53
2023-07-03T12:07:36.928Z,42.74
2023-07-03T12:10:32.700Z,41.76
2023-07-03T12:13:17.824Z,46.52
2023-07-03T12:15:44.240Z,41.86
2023-07-03T12:18:11.220Z,39.11
2023-07-03T12:20:38.155Z,40.17
2023-07-03T12:23:04.686Z,41.73
2023-07-03T12:25:31.103Z,41.00
2023-07-03T12:28:08.698Z,43.46
2023-07-03T12:30:35.086Z,40.06
2023-07-03T12:33:01.468Z,44.40
2023-07-03T12:35:32.171Z,43.60
2023-07-03T12:38:09.986Z,43.38
2023-07-03T12:40:43.738Z,42.73
2023-07-03T12:43:10.568Z,41.19
2023-07-03T12:45:37.172Z,40.00
2023-07-03T12:48:04.752Z,42.43
2023-07-03T12:50:32.022Z,40.57
2023-07-03T12:52:59.294Z,40.33
2023-07-03T12:55:35.247Z,40.45
2023-07-03T12:58:01.773Z,46.13
2023-07-03T13:00:32.312Z,35.56
2023-07-03T13:02:59.920Z,36.89
2023-07-03T13:05:26.868Z,34.05
2023-07-03T13:07:53.358Z,31.66
2023-07-03T13:10:20.602Z,31.90
2023-07-03T13:13:02.349Z,31.48
2023-07-03T13:15:30.663Z,30.00
2023-07-03T13:18:04.932Z,26.67
2023-07-03T13:20:31.454Z,27.82
2023-07-03T13:22:59.772Z,30.07
2023-07-03T13:25:36.835Z,27.40
2023-07-03T13:28:06.377Z,28.95
2023-07-03T13:30:34.229Z,28.67
2023-07-03T13:33:08.494Z,28.34
2023-07-03T13:35:35.098Z,26.67
2023-07-03T13:38:11.749Z,26.74
2023-07-03T13:40:38.152Z,28.59
2023-07-03T13:43:04.496Z,29.75
2023-07-03T13:45:31.463Z,27.30
2023-07-03T13:47:58.003Z,29.51
2023-07-03T13:50:24.379Z,28.71
2023-07-03T13:52:50.796Z,28.63
2023-07-03T13:55:17.154Z,28.07
2023-07-03T13:57:43.540Z,26.84
2023-07-03T14:00:10.299Z,28.90
2023-07-03T14:02:48.085Z,32.29
2023-07-03T14:05:16.050Z,30.25
2023-07-03T14:07:42.488Z,31.89
2023-07-03T14:10:14.106Z,29.82
2023-07-03T14:12:42.904Z,27.03
2023-07-03T14:15:17.602Z,25.47
2023-07-03T14:17:44.420Z,24.87
2023-07-03T14:20:11.468Z,24.86
2023-07-03T14:22:38.614Z,25.20
2023-07-03T14:25:05.619Z,25.87
2023-07-03T14:27:35.423Z,25.46
2023-07-03T14:30:01.814Z,25.05
2023-07-03T14:32:39.851Z,25.24
2023-07-03T14:35:14.660Z,24.13
2023-07-03T14:37:41.032Z,24.64
2023-07-03T14:40:07.662Z,25.76
2023-07-03T14:42:34.021Z,25.30
2023-07-03T14:45:00.393Z,24.56
2023-07-03T14:47:26.788Z,23.47
2023-07-03T14:49:53.416Z,23.74
2023-07-03T14:52:20.616Z,23.07
2023-07-03T14:54:47.379Z,23.44
2023-07-03T14:57:14.447Z,24.26
2023-07-03T14:59:42.441Z,24.89
2023-07-03T15:02:09.181Z,24.91
2023-07-03T15:04:35.743Z,26.33
2023-07-03T15:07:02.097Z,27.25
2023-07-03T15:09:28.444Z,28.03
2023-07-03T15:11:54.913Z,28.92
2023-07-03T15:14:21.228Z,27.59
2023-07-03T15:16:47.684Z,27.35
2023-07-03T15:19:14.020Z,27.90
2023-07-03T15:21:40.379Z,28.57
2023-07-03T15:24:07.520Z,27.71
2023-07-03T15:26:34.140Z,26.64
2023-07-03T15:29:00.562Z,25.59
2023-07-03T15:31:27.058Z,27.06
2023-07-03T15:33:53.984Z,27.85
2023-07-03T15:36:20.338Z,28.32
2023-07-03T15:38:46.848Z,28.50
2023-07-03T15:41:13.239Z,27.25
2023-07-03T15:43:39.617Z,26.40
2023-07-03T15:46:06.034Z,25.15
2023-07-03T15:48:32.712Z,25.44
2023-07-03T15:50:59.819Z,24.46
2023-07-03T15:53:26.826Z,23.32
2023-07-03T15:56:02.881Z,23.39
2023-07-03T15:58:30.845Z,22.82
2023-07-03T16:01:06.493Z,22.38
2023-07-03T16:03:34.733Z,23.30
2023-07-03T16:06:03.825Z,22.94
2023-07-03T16:08:31.070Z,22.76
2023-07-03T16:10:57.486Z,23.03
2023-07-03T16:13:25.888Z,23.25
2023-07-03T16:15:52.639Z,20.60
2023-07-03T16:18:19.132Z,21.28
2023-07-03T16:20:51.334Z,22.45
2023-07-03T16:23:17.713Z,22.84
2023-07-03T16:25:48.594Z,22.31
2023-07-03T16:28:15.298Z,21.64
2023-07-03T16:30:41.742Z,20.89
2023-07-03T16:33:08.200Z,21.21
2023-07-03T16:35:34.575Z,21.16
2023-07-03T16:38:00.911Z,21.60
2023-07-03T16:40:28.567Z,21.74
2023-07-03T16:42:55.041Z,21.72
2023-07-03T16:45:21.476Z,21.82
2023-07-03T16:47:47.998Z,21.78
2023-07-03T16:50:14.442Z,22.01
2023-07-03T16:52:40.794Z,23.24
2023-07-03T16:55:07.321Z,22.82
2023-07-03T16:57:33.666Z,22.96
2023-07-03T17:00:00.101Z,22.04
2023-07-03T17:02:26.596Z,22.42
2023-07-03T17:04:52.962Z,22.99
2023-07-03T17:07:19.447Z,23.34
2023-07-03T17:09:45.874Z,23.20
2023-07-03T17:12:12.282Z,23.96
2023-07-03T17:14:38.643Z,23.32
2023-07-03T17:17:07.523Z,23.86
2023-07-03T17:19:33.950Z,23.89
2023-07-03T17:22:00.327Z,24.34
2023-07-03T17:24:26.623Z,25.46
2023-07-03T17:26:53.042Z,26.81
2023-07-03T17:29:19.525Z,27.29
2023-07-03T17:31:45.995Z,28.45
2023-07-03T17:34:12.787Z,30.06
2023-07-03T17:36:39.172Z,29.58
2023-07-03T17:39:05.520Z,30.80
2023-07-03T17:41:31.848Z,31.60
2023-07-03T17:43:58.228Z,33.14
2023-07-03T17:46:27.636Z,32.15
2023-07-03T17:48:54.023Z,32.98
2023-07-03T17:51:20.440Z,34.99
2023-07-03T17:53:46.849Z,35.51
2023-07-03T17:56:13.268Z,36.36
2023-07-03T17:58:39.674Z,38.13
2023-07-03T18:01:06.083Z,38.37
2023-07-03T18:03:32.635Z,39.72
2023-07-03T18:05:59.169Z,39.24
2023-07-03T18:08:25.671Z,40.41
2023-07-03T18:10:52.090Z,40.51
2023-07-03T18:13:18.653Z,40.26
2023-07-03T18:15:49.728Z,38.22
2023-07-03T18:18:21.374Z,39.40
2023-07-03T18:20:48.353Z,37.61
2023-07-03T18:23:14.715Z,38.97
2023-07-03T18:25:41.213Z,39.53
2023-07-03T18:28:08.310Z,39.71
2023-07-03T18:30:34.672Z,40.37
2023-07-03T18:33:01.141Z,41.61
2023-07-03T18:35:27.602Z,43.06
2023-07-03T18:37:54.021Z,42.86
2023-07-03T18:40:20.463Z,43.53
2023-07-03T18:42:46.893Z,44.46
2023-07-03T18:45:13.960Z,45.73
2023-07-03T18:47:40.426Z,46.31
2023-07-03T18:50:07.921Z,45.88
2023-07-03T18:52:34.404Z,45.36
2023-07-03T18:55:00.921Z,46.50
2023-07-03T18:57:27.451Z,47.72
2023-07-03T18:59:53.767Z,48.06
2023-07-03T19:02:20.150Z,48.53
2023-07-03T19:04:46.604Z,49.11
2023-07-03T19:07:13.002Z,48.98
2023-07-03T19:09:39.383Z,49.15
2023-07-03T19:12:08.066Z,49.28
2023-07-03T19:14:35.957Z,47.98
2023-07-03T19:17:02.954Z,48.04
2023-07-03T19:19:36.662Z,49.64
2023-07-03T19:22:03.156Z,48.58
2023-07-03T19:24:32.057Z,48.02
2023-07-03T19:26:58.395Z,47.21
2023-07-03T19:29:24.875Z,48.37
2023-07-03T19:31:51.237Z,48.89
2023-07-03T19:34:17.616Z,48.77
2023-07-03T19:36:44.446Z,46.17
2023-07-03T19:39:10.924Z,46.04
2023-07-03T19:41:39.806Z,46.35
2023-07-03T19:44:07.814Z,46.58
2023-07-03T19:46:35.314Z,47.08
2023-07-03T19:49:05.873Z,49.54
2023-07-03T19:51:32.889Z,48.64
2023-07-03T19:53:59.248Z,48.11
2023-07-03T19:56:25.819Z,48.10
2023-07-03T19:58:52.252Z,48.00
2023-07-03T20:01:18.952Z,48.32
2023-07-03T20:03:45.708Z,48.59
2023-07-03T20:06:13.282Z,49.19
2023-07-03T20:08:39.640Z,49.69
2023-07-03T20:11:06.138Z,49.90
2023-07-03T20:13:32.588Z,50.32
2023-07-03T20:16:03.210Z,50.37
2023-07-03T20:18:29.852Z,50.53
2023-07-03T20:20:56.378Z,50.79
2023-07-03T20:23:22.756Z,50.90
2023-07-03T20:25:52.959Z,51.65
2023-07-03T20:28:19.627Z,51.62
2023-07-03T20:30:46.739Z,51.72
2023-07-03T20:33:13.158Z,52.20
2023-07-03T20:35:39.594Z,52.45
2023-07-03T20:38:05.987Z,52.56
2023-07-03T20:40:32.861Z,52.89
2023-07-03T20:42:59.321Z,53.23
2023-07-03T20:45:26.362Z,53.30
2023-07-03T20:47:52.883Z,53.23
2023-07-03T20:50:19.300Z,53.37
2023-07-03T20:52:45.768Z,53.40
2023-07-03T20:55:12.118Z,53.94
2023-07-03T20:57:38.481Z,54.43
2023-07-03T21:00:05.049Z,54.43
2023-07-03T21:02:32.051Z,54.73
2023-07-03T21:04:59.185Z,54.70
2023-07-03T21:07:25.626Z,54.91
2023-07-03T21:09:52.301Z,55.06
2023-07-03T21:12:18.654Z,55.15
2023-07-03T21:14:45.049Z,55.46
2023-07-03T21:17:11.610Z,55.52
2023-07-03T21:19:37.998Z,56.03
2023-07-03T21:22:04.577Z,56.27
2023-07-03T21:24:31.062Z,57.78
2023-07-03T21:26:57.478Z,58.66
2023-07-03T21:29:23.968Z,58.56
2023-07-03T21:31:50.435Z,58.07
2023-07-03T21:34:16.860Z,57.74
2023-07-03T21:36:43.324Z,56.94
2023-07-03T21:39:10.273Z,57.58
2023-07-03T21:41:37.464Z,57.53
2023-07-03T21:44:14.012Z,58.11
2023-07-03T21:46:40.673Z,58.11
2023-07-03T21:49:10.233Z,61.47
2023-07-03T21:51:36.625Z,59.99
2023-07-03T21:54:03.040Z,58.51
2023-07-03T21:56:30.057Z,57.51
2023-07-03T21:59:01.266Z,57.36
2023-07-03T22:01:38.104Z,57.38
2023-07-03T22:04:05.831Z,57.47
2023-07-03T22:06:32.297Z,57.50
2023-07-03T22:08:59.006Z,57.56
2023-07-03T22:11:26.189Z,57.56
2023-07-03T22:13:52.599Z,57.60
2023-07-03T22:16:19.676Z,57.69
2023-07-03T22:18:46.131Z,57.83
2023-07-03T22:21:13.055Z,57.83
2023-07-03T22:23:39.542Z,57.95
2023-07-03T22:26:05.942Z,58.55
2023-07-03T22:28:32.379Z,58.46
2023-07-03T22:30:58.796Z,58.26
2023-07-03T22:33:25.351Z,58.35
2023-07-03T22:35:52.623Z,58.38
2023-07-03T22:38:19.420Z,58.43
2023-07-03T22:40:48.473Z,58.52
2023-07-03T22:43:14.869Z,58.65
2023-07-03T22:45:41.194Z,58.88
2023-07-03T22:48:07.669Z,58.96
2023-07-03T22:50:34.092Z,59.42
2023-07-03T22:53:00.459Z,59.78
2023-07-03T22:55:27.002Z,59.56
2023-07-03T22:57:53.397Z,59.64
2023-07-03T23:00:19.743Z,59.81
2023-07-03T23:02:46.254Z,59.84
2023-07-03T23:05:13.344Z,60.26
2023-07-03T23:07:39.982Z,62.90
2023-07-03T23:10:06.843Z,64.18
2023-07-03T23:12:33.707Z,64.19
2023-07-03T23:15:00.286Z,64.53
2023-07-03T23:17:30.891Z,64.29
2023-07-03T23:19:57.563Z,63.86
2023-07-03T23:22:24.695Z,64.82
2023-07-03T23:24:54.728Z,64.45
2023-07-03T23:27:21.518Z,62.96
2023-07-03T23:29:48.259Z,63.19
2023-07-03T23:32:14.812Z,63.87
2023-07-03T23:34:41.704Z,64.96
2023-07-03T23:37:08.312Z,64.12
2023-07-03T23:39:37.963Z,63.52
2023-07-03T23:42:05.185Z,62.36
2023-07-03T23:44:31.924Z,62.09
2023-07-03T23:46:58.364Z,62.99
2023-07-03T23:49:24.965Z,63.84
2023-07-03T23:51:51.403Z,63.06
2023-07-03T23:54:17.787Z,64.05
2023-07-03T23:56:45.327Z,64.08
2023-07-03T23:59:11.664Z,61.84
